Time;durP1;ratioP1;P1;durP2;ratioP2;P2;SDS_P1;SDS_P2;PMS_P1;PMS_P2;Temp;Humidity;BMP_temperature;BMP_pressure;BME280_temperature;BME280_humidity;BME280_pressure;Samples;Min_cycle;Max_cycle;Signal;HPM_P1;HPM_P2
2021/01/12 00:01:33;;;;;;;26.52;15.73;;;0.50;99.90;;;;;;476613;249;27648;-71
2021/01/12 00:03:34;;;;;;;26.80;16.92;;;0.50;99.90;;;;;;476653;249;27602;-69
2021/01/12 00:05:36;;;;;;;26.23;15.63;;;0.50;99.90;;;;;;476335;249;28164;-70
2021/01/12 00:07:37;;;;;;;27.90;14.05;;;0.40;99.90;;;;;;476243;249;27935;-69
2021/01/12 00:09:38;;;;;;;26.08;15.18;;;0.50;99.90;;;;;;476586;249;27444;-69
2021/01/12 00:11:39;;;;;;;24.23;14.20;;;0.50;99.90;;;;;;476608;249;27564;-70
2021/01/12 00:13:41;;;;;;;28.75;16.92;;;0.50;99.90;;;;;;476620;249;27937;-69
2021/01/12 00:15:42;;;;;;;24.52;16.12;;;0.50;99.90;;;;;;476594;249;27929;-69
2021/01/12 00:17:43;;;;;;;29.63;16.05;;;0.60;99.90;;;;;;476555;249;27470;-71
2021/01/12 00:19:44;;;;;;;26.37;15.43;;;0.60;99.90;;;;;;476585;249;27505;-69
2021/01/12 00:21:46;;;;;;;26.85;16.73;;;0.60;99.90;;;;;;476535;249;27458;-69
2021/01/12 00:23:47;;;;;;;24.73;15.35;;;0.50;99.90;;;;;;473992;244;27463;-69
2021/01/12 00:25:48;;;;;;;23.52;14.85;;;0.60;99.90;;;;;;489745;242;27530;-69
2021/01/12 00:27:49;;;;;;;26.23;15.32;;;0.60;99.90;;;;;;489534;242;28090;-69
2021/01/12 00:29:51;;;;;;;23.77;15.40;;;0.60;99.90;;;;;;489671;242;28072;-69
2021/01/12 00:34:13;;;;;;;27.08;16.12;;;0.60;99.90;;;;;;474842;250;27503;-69
2021/01/12 00:36:14;;;;;;;26.02;15.77;;;0.60;99.90;;;;;;466652;253;27545;-70
2021/01/12 00:38:15;;;;;;;26.27;15.48;;;0.60;99.90;;;;;;475859;249;27530;-72
2021/01/12 00:40:16;;;;;;;25.70;15.80;;;0.60;99.90;;;;;;458554;258;27472;-71
2021/01/12 00:42:18;;;;;;;25.27;15.55;;;0.60;99.90;;;;;;475916;249;27983;-70
2021/01/12 00:44:19;;;;;;;24.67;15.57;;;0.60;99.90;;;;;;458543;258;27978;-70
2021/01/12 00:46:20;;;;;;;28.15;16.85;;;0.60;99.90;;;;;;475877;249;27536;-70
2021/01/12 00:48:21;;;;;;;28.38;16.62;;;0.60;99.90;;;;;;458576;258;27489;-71
2021/01/12 00:50:23;;;;;;;25.50;15.40;;;0.50;99.90;;;;;;475849;250;27523;-69
2021/01/12 00:52:24;;;;;;;25.55;15.40;;;0.60;99.90;;;;;;463804;244;27463;-70
2021/01/12 00:54:25;;;;;;;28.17;15.68;;;0.60;99.90;;;;;;479630;248;27452;-71
2021/01/12 00:56:26;;;;;;;24.83;15.77;;;0.60;99.90;;;;;;471405;252;27911;-70
2021/01/12 00:58:28;;;;;;;29.87;17.58;;;0.50;99.90;;;;;;482077;246;27991;-70
2021/01/12 01:00:29;;;;;;;26.42;15.57;;;0.50;99.90;;;;;;489305;243;27430;-69
2021/01/12 01:02:30;;;;;;;27.00;15.60;;;0.50;99.90;;;;;;482153;244;27405;-69
2021/01/12 01:04:31;;;;;;;27.80;16.00;;;0.60;99.90;;;;;;489487;242;27438;-71
2021/01/12 01:06:33;;;;;;;23.65;13.93;;;0.60;99.90;;;;;;482105;244;27421;-70
2021/01/12 01:08:34;;;;;;;26.83;15.75;;;0.60;99.90;;;;;;489456;242;27410;-70
2021/01/12 01:10:35;;;;;;;21.55;14.25;;;0.60;99.90;;;;;;482140;245;27389;-70
2021/01/12 01:12:36;;;;;;;28.23;16.30;;;0.60;99.90;;;;;;490007;240;27975;-70
2021/01/12 01:14:38;;;;;;;23.60;15.32;;;0.50;99.90;;;;;;484370;244;28178;-72
2021/01/12 01:16:39;;;;;;;23.55;15.25;;;0.60;99.90;;;;;;495076;240;27452;-70
2021/01/12 01:18:40;;;;;;;24.90;15.35;;;0.70;99.90;;;;;;487959;243;27526;-69
2021/01/12 01:20:42;;;;;;;24.05;14.77;;;0.60;99.90;;;;;;484318;245;27588;-70
2021/01/12 01:22:43;;;;;;;23.87;15.30;;;0.60;99.90;;;;;;495041;240;27510;-70
2021/01/12 01:24:44;;;;;;;26.48;14.73;;;0.70;99.90;;;;;;495052;240;27513;-71
2021/01/12 01:26:45;;;;;;;27.40;15.90;;;0.60;99.90;;;;;;495014;240;27568;-70
2021/01/12 01:28:47;;;;;;;24.60;16.30;;;0.60;99.90;;;;;;487738;243;28035;-70
2021/01/12 01:30:48;;;;;;;21.05;12.90;;;0.60;99.90;;;;;;484112;245;28069;-70
2021/01/12 01:32:49;;;;;;;28.12;15.85;;;0.70;99.90;;;;;;494881;240;27504;-69
2021/01/12 01:34:50;;;;;;;26.15;15.57;;;0.70;99.90;;;;;;494875;240;27501;-70
2021/01/12 01:36:52;;;;;;;26.25;16.08;;;0.70;99.90;;;;;;487777;243;27629;-69
2021/01/12 01:38:53;;;;;;;23.02;14.57;;;0.60;99.90;;;;;;484208;245;27531;-69
2021/01/12 01:40:54;;;;;;;23.73;13.48;;;0.70;99.90;;;;;;494751;240;27611;-71
2021/01/12 01:42:55;;;;;;;22.40;14.13;;;0.70;99.90;;;;;;487759;243;27997;-70
2021/01/12 01:44:57;;;;;;;24.75;15.00;;;0.80;99.90;;;;;;484172;245;28165;-71
2021/01/12 01:46:58;;;;;;;22.92;14.70;;;0.70;99.90;;;;;;494885;240;27994;-69
2021/01/12 01:48:59;;;;;;;24.05;14.57;;;0.80;99.90;;;;;;487753;243;27621;-70
2021/01/12 01:51:00;;;;;;;22.60;14.10;;;0.70;99.90;;;;;;483997;245;27533;-70
2021/01/12 01:53:02;;;;;;;23.55;13.35;;;0.80;99.90;;;;;;494869;240;27503;-70
2021/01/12 01:55:03;;;;;;;22.33;13.55;;;0.70;99.90;;;;;;487783;243;27555;-71
2021/01/12 01:57:04;;;;;;;24.10;15.27;;;0.70;99.90;;;;;;484218;245;27584;-70
2021/01/12 01:59:05;;;;;;;20.95;13.55;;;0.80;99.90;;;;;;494964;240;27986;-71
2021/01/12 02:01:07;;;;;;;21.98;13.73;;;0.70;99.90;;;;;;487825;243;28083;-70
2021/01/12 02:03:08;;;;;;;23.67;14.50;;;0.80;99.90;;;;;;484311;245;27539;-70
2021/01/12 02:05:09;;;;;;;19.30;12.60;;;0.80;99.90;;;;;;494996;240;27500;-70
2021/01/12 02:07:10;;;;;;;25.25;12.90;;;0.90;99.90;;;;;;487887;239;27652;-71
2021/01/12 02:09:12;;;;;;;22.75;14.40;;;0.90;99.90;;;;;;484178;245;27934;-70
2021/01/12 02:11:13;;;;;;;24.33;13.50;;;1.00;99.90;;;;;;494908;240;27579;-70
2021/01/12 02:13:14;;;;;;;25.30;14.13;;;0.90;99.90;;;;;;494949;240;27515;-70
2021/01/12 02:15:15;;;;;;;21.40;13.88;;;0.90;99.90;;;;;;494944;240;28081;-71
2021/01/12 02:17:17;;;;;;;19.62;13.23;;;0.90;99.90;;;;;;494813;240;28097;-70
2021/01/12 02:19:18;;;;;;;21.30;13.88;;;1.00;99.90;;;;;;487777;243;27550;-70
2021/01/12 02:21:19;;;;;;;22.62;13.68;;;1.00;99.90;;;;;;484095;245;27600;-70
2021/01/12 02:23:20;;;;;;;23.95;14.68;;;1.00;99.90;;;;;;494951;240;27507;-70
2021/01/12 02:25:22;;;;;;;22.73;14.48;;;1.00;99.90;;;;;;487803;243;27880;-71
2021/01/12 02:27:23;;;;;;;23.38;15.35;;;1.00;99.90;;;;;;484197;245;27570;-70
2021/01/12 02:29:24;;;;;;;30.45;16.05;;;0.90;99.90;;;;;;494929;240;27517;-70
2021/01/12 02:31:26;;;;;;;22.87;14.43;;;1.00;99.90;;;;;;487696;239;27991;-69
2021/01/12 02:33:27;;;;;;;21.85;13.40;;;1.00;99.90;;;;;;484219;245;28195;-71
2021/01/12 02:35:28;;;;;;;20.70;13.85;;;0.90;99.90;;;;;;494942;240;27511;-69
2021/01/12 02:37:29;;;;;;;23.42;14.15;;;1.00;99.90;;;;;;495041;240;27506;-70
2021/01/12 02:39:31;;;;;;;21.35;13.43;;;1.00;99.90;;;;;;494308;240;27602;-71
2021/01/12 02:41:34;;;;;;;22.00;14.10;;;1.00;99.90;;;;;;494906;240;27487;-69
2021/01/12 02:43:36;;;;;;;23.95;15.07;;;1.00;99.90;;;;;;494881;237;27984;-69
2021/01/12 02:45:37;;;;;;;23.98;14.55;;;1.00;99.90;;;;;;494952;240;27631;-71
2021/01/12 02:47:38;;;;;;;23.80;14.55;;;1.10;99.90;;;;;;487815;243;27649;-70
2021/01/12 02:49:40;;;;;;;25.70;14.60;;;1.00;99.90;;;;;;484274;245;27536;-70
2021/01/12 02:51:41;;;;;;;22.50;14.27;;;1.00;99.90;;;;;;494948;240;27836;-71
2021/01/12 02:53:42;;;;;;;25.12;14.63;;;1.00;99.90;;;;;;487930;243;27507;-69
2021/01/12 02:55:43;;;;;;;24.55;14.43;;;1.00;99.90;;;;;;484368;245;27543;-71
2021/01/12 02:57:45;;;;;;;25.17;15.65;;;1.00;99.90;;;;;;495088;240;27924;-70
2021/01/12 02:59:46;;;;;;;24.33;14.75;;;1.00;99.90;;;;;;495055;240;27978;-70
2021/01/12 03:01:47;;;;;;;25.05;14.68;;;1.00;99.90;;;;;;487653;243;27621;-72
2021/01/12 03:03:48;;;;;;;29.33;14.87;;;0.90;99.90;;;;;;484336;245;27535;-70
2021/01/12 03:05:50;;;;;;;27.45;14.90;;;1.00;99.90;;;;;;495058;240;27504;-70
2021/01/12 03:07:51;;;;;;;20.70;13.48;;;1.00;99.90;;;;;;487947;243;27616;-69
2021/01/12 03:09:52;;;;;;;23.52;14.80;;;1.10;99.90;;;;;;484219;245;27616;-69
2021/01/12 03:11:53;;;;;;;22.50;13.93;;;1.00;99.90;;;;;;494707;240;29061;-70
2021/01/12 03:13:55;;;;;;;27.83;15.60;;;1.00;99.90;;;;;;487759;240;27927;-70
2021/01/12 03:15:56;;;;;;;21.95;14.50;;;1.00;99.90;;;;;;483974;245;27550;-70
2021/01/12 03:17:57;;;;;;;24.92;14.73;;;1.00;99.90;;;;;;494857;240;27491;-69
2021/01/12 03:19:58;;;;;;;23.75;14.15;;;1.00;99.90;;;;;;487782;243;27542;-72
2021/01/12 03:22:00;;;;;;;24.58;15.68;;;1.10;99.90;;;;;;484175;245;27545;-70
2021/01/12 03:24:01;;;;;;;24.37;14.80;;;1.10;99.90;;;;;;494922;240;27574;-70
2021/01/12 03:26:02;;;;;;;23.15;14.35;;;1.10;99.90;;;;;;494942;240;27499;-70
2021/01/12 03:28:04;;;;;;;22.90;14.75;;;1.10;99.90;;;;;;494947;240;27976;-71
2021/01/12 03:30:05;;;;;;;22.85;15.35;;;1.10;99.90;;;;;;487818;243;28111;-72
2021/01/12 03:32:06;;;;;;;21.42;13.45;;;1.10;99.90;;;;;;484289;245;27669;-70
2021/01/12 03:34:07;;;;;;;25.30;15.20;;;1.10;99.90;;;;;;495041;240;27476;-70
2021/01/12 03:36:08;;;;;;;20.27;13.65;;;1.10;99.90;;;;;;495026;240;27530;-71
2021/01/12 03:38:10;;;;;;;22.50;14.20;;;1.10;99.90;;;;;;495022;240;27515;-70
2021/01/12 03:40:11;;;;;;;22.52;15.13;;;1.20;99.90;;;;;;494835;240;27526;-71
2021/01/12 03:42:12;;;;;;;21.00;13.65;;;1.10;99.90;;;;;;487700;243;27519;-70
2021/01/12 03:44:13;;;;;;;22.42;13.07;;;1.10;99.90;;;;;;484214;245;28775;-70
2021/01/12 03:46:15;;;;;;;21.75;13.10;;;1.00;99.90;;;;;;494914;240;28133;-72
2021/01/12 03:48:16;;;;;;;19.50;12.95;;;1.00;99.90;;;;;;487768;243;27555;-70
2021/01/12 03:50:17;;;;;;;20.02;12.30;;;1.10;99.90;;;;;;484143;245;27530;-70
2021/01/12 03:52:18;;;;;;;21.70;13.52;;;1.10;99.90;;;;;;494919;240;27496;-70
2021/01/12 03:54:20;;;;;;;22.42;13.35;;;1.00;99.90;;;;;;487810;243;27954;-71
2021/01/12 03:56:21;;;;;;;22.65;13.90;;;1.00;99.90;;;;;;484215;245;27502;-70
2021/01/12 03:58:22;;;;;;;22.90;14.80;;;1.00;99.90;;;;;;494904;240;28035;-70
2021/01/12 04:00:23;;;;;;;22.67;14.00;;;1.00;99.90;;;;;;487758;243;28019;-70
2021/01/12 04:02:25;;;;;;;24.05;13.98;;;1.00;99.90;;;;;;484221;245;27599;-70
2021/01/12 04:04:26;;;;;;;21.10;13.50;;;1.00;99.90;;;;;;494947;240;27512;-70
2021/01/12 04:06:27;;;;;;;22.37;13.60;;;1.00;99.90;;;;;;494920;240;27496;-70
2021/01/12 04:08:29;;;;;;;20.25;13.88;;;1.00;99.90;;;;;;494940;240;27627;-70
2021/01/12 04:10:30;;;;;;;22.75;13.75;;;1.00;99.90;;;;;;494952;240;27574;-70
2021/01/12 04:12:31;;;;;;;23.17;13.40;;;1.00;99.90;;;;;;495038;240;27457;-70
2021/01/12 04:14:32;;;;;;;22.23;13.05;;;1.00;99.90;;;;;;494983;240;28043;-71
2021/01/12 04:16:34;;;;;;;21.17;14.07;;;1.00;99.90;;;;;;487815;243;28054;-70
2021/01/12 04:18:35;;;;;;;19.83;11.98;;;1.00;99.90;;;;;;484163;245;27504;-70
2021/01/12 04:20:36;;;;;;;21.45;13.40;;;1.00;99.90;;;;;;494867;240;27615;-71
2021/01/12 04:22:37;;;;;;;20.88;13.60;;;1.00;99.90;;;;;;494930;240;27460;-70
2021/01/12 04:24:39;;;;;;;20.55;12.95;;;1.00;99.90;;;;;;487834;243;27538;-70
2021/01/12 04:26:40;;;;;;;19.58;12.23;;;1.00;99.90;;;;;;484213;245;27690;-71
2021/01/12 04:28:41;;;;;;;19.42;12.70;;;1.00;99.90;;;;;;495008;240;27499;-70
2021/01/12 04:30:42;;;;;;;17.87;11.43;;;1.00;99.90;;;;;;494979;240;27977;-71
2021/01/12 04:32:44;;;;;;;20.00;12.30;;;1.00;99.90;;;;;;487814;243;28044;-70
2021/01/12 04:34:45;;;;;;;19.12;11.75;;;1.00;99.90;;;;;;484220;245;27531;-70
2021/01/12 04:36:46;;;;;;;20.17;12.05;;;1.00;99.90;;;;;;494944;240;27500;-70
2021/01/12 04:38:47;;;;;;;17.92;12.60;;;1.00;99.90;;;;;;494887;240;27584;-70
2021/01/12 04:40:49;;;;;;;17.25;11.18;;;1.00;99.90;;;;;;487777;243;27538;-71
2021/01/12 04:42:50;;;;;;;17.40;12.10;;;1.00;99.90;;;;;;484190;245;27500;-70
2021/01/12 04:44:51;;;;;;;17.00;11.27;;;1.00;99.90;;;;;;494896;240;28067;-70
2021/01/12 04:46:52;;;;;;;17.62;11.45;;;1.00;99.90;;;;;;487750;240;28002;-71
2021/01/12 04:48:54;;;;;;;20.30;11.77;;;1.00;99.90;;;;;;484190;245;28187;-70
2021/01/12 04:50:55;;;;;;;19.00;11.70;;;1.00;99.90;;;;;;494885;240;27532;-71
2021/01/12 04:52:56;;;;;;;16.17;10.70;;;1.00;99.90;;;;;;487841;243;27535;-69
2021/01/12 04:54:57;;;;;;;18.85;12.02;;;1.00;99.90;;;;;;484253;245;27515;-69
2021/01/12 04:56:59;;;;;;;16.85;11.23;;;1.00;99.90;;;;;;495028;240;27512;-70
2021/01/12 04:59:00;;;;;;;16.70;11.00;;;1.00;99.90;;;;;;495025;240;27556;-70
2021/01/12 05:01:01;;;;;;;17.33;11.45;;;1.00;99.90;;;;;;494982;240;27964;-71
2021/01/12 05:03:02;;;;;;;17.65;11.90;;;1.00;99.90;;;;;;487902;243;29084;-69
2021/01/12 05:05:04;;;;;;;16.52;11.40;;;1.00;99.90;;;;;;484308;245;27590;-70
2021/01/12 05:07:05;;;;;;;17.17;11.93;;;1.10;99.90;;;;;;494972;240;27508;-70
2021/01/12 05:09:06;;;;;;;18.55;11.12;;;1.00;99.90;;;;;;494943;240;27570;-70
2021/01/12 05:11:08;;;;;;;16.92;11.60;;;1.00;99.90;;;;;;494871;240;27840;-70
2021/01/12 05:13:09;;;;;;;17.05;12.80;;;1.00;99.90;;;;;;487786;244;27891;-70
2021/01/12 05:15:11;;;;;;;16.20;10.85;;;1.00;99.90;;;;;;484220;245;27520;-70
2021/01/12 05:17:11;;;;;;;18.98;11.52;;;1.00;99.90;;;;;;495174;240;28017;-70
2021/01/12 05:19:12;;;;;;;19.77;12.52;;;1.00;99.90;;;;;;488116;244;27913;-70
2021/01/12 05:21:14;;;;;;;17.95;11.52;;;1.10;99.90;;;;;;484469;245;27519;-71
2021/01/12 05:23:15;;;;;;;19.17;11.68;;;1.10;99.90;;;;;;495211;240;27563;-70
2021/01/12 05:25:19;;;;;;;21.45;12.00;;;1.10;99.90;;;;;;488114;243;27483;-69
2021/01/12 05:27:20;;;;;;;19.45;12.32;;;1.10;99.90;;;;;;484512;245;27568;-70
2021/01/12 05:29:21;;;;;;;15.65;10.60;;;1.10;99.90;;;;;;495152;240;27506;-71
2021/01/12 05:31:23;;;;;;;20.30;13.48;;;1.10;99.90;;;;;;487735;243;27539;-70
2021/01/12 05:33:24;;;;;;;22.80;12.90;;;1.10;99.90;;;;;;484182;245;27954;-70
2021/01/12 05:35:26;;;;;;;19.20;12.85;;;1.10;99.90;;;;;;494956;240;27976;-70
2021/01/12 05:37:26;;;;;;;19.42;12.07;;;1.10;99.90;;;;;;495011;240;28722;-70
2021/01/12 05:39:28;;;;;;;21.62;13.50;;;1.10;99.90;;;;;;487912;243;27482;-70
2021/01/12 05:41:29;;;;;;;19.20;13.10;;;1.10;99.90;;;;;;484219;245;27544;-71
2021/01/12 05:43:30;;;;;;;20.45;12.50;;;1.20;99.90;;;;;;494946;240;27484;-70
2021/01/12 05:45:31;;;;;;;16.62;11.18;;;1.20;99.90;;;;;;494825;240;27517;-71
2021/01/12 05:47:33;;;;;;;19.12;11.57;;;1.20;99.90;;;;;;494898;240;27504;-70
2021/01/12 05:49:34;;;;;;;17.35;11.60;;;1.20;99.90;;;;;;487824;243;28058;-70
2021/01/12 05:51:35;;;;;;;16.00;11.43;;;1.10;99.90;;;;;;484250;245;29079;-71
2021/01/12 05:53:37;;;;;;;17.90;11.93;;;1.10;99.90;;;;;;495049;240;27563;-70
2021/01/12 05:55:38;;;;;;;16.50;11.43;;;1.10;99.90;;;;;;487946;243;27554;-70
2021/01/12 05:57:39;;;;;;;16.27;11.02;;;1.20;99.90;;;;;;484380;245;27544;-70
2021/01/12 05:59:40;;;;;;;17.08;11.00;;;1.20;99.90;;;;;;495095;240;27556;-69
2021/01/12 06:01:42;;;;;;;14.25;11.00;;;1.20;99.90;;;;;;487870;243;27539;-72
2021/01/12 06:03:43;;;;;;;15.45;10.48;;;1.20;99.90;;;;;;484272;245;27589;-70
2021/01/12 06:05:44;;;;;;;18.70;11.60;;;1.20;99.90;;;;;;494853;240;28032;-70
2021/01/12 06:07:45;;;;;;;18.02;10.80;;;1.20;99.90;;;;;;494907;240;28036;-71
2021/01/12 06:09:47;;;;;;;15.63;9.93;;;1.20;99.90;;;;;;494830;240;27590;-70
2021/01/12 06:11:48;;;;;;;14.80;10.65;;;1.20;99.90;;;;;;487774;243;27539;-71
2021/01/12 06:13:49;;;;;;;14.23;9.48;;;1.20;99.90;;;;;;484156;245;27524;-69
2021/01/12 06:15:50;;;;;;;15.07;10.02;;;1.20;99.90;;;;;;494873;240;27515;-70
2021/01/12 06:17:52;;;;;;;15.02;10.23;;;1.20;99.90;;;;;;494912;240;27515;-70
2021/01/12 06:19:53;;;;;;;12.93;9.07;;;1.20;99.90;;;;;;487789;243;27620;-70
2021/01/12 06:21:54;;;;;;;13.62;9.18;;;1.20;99.90;;;;;;484969;245;28052;-70
2021/01/12 06:23:55;;;;;;;20.27;8.95;;;1.20;99.90;;;;;;484282;245;28767;-70
2021/01/12 06:25:57;;;;;;;12.50;8.95;;;1.20;99.90;;;;;;495006;240;28055;-70
2021/01/12 06:27:58;;;;;;;10.70;8.32;;;1.20;99.90;;;;;;495021;240;27520;-70
2021/01/12 06:29:59;;;;;;;11.55;8.48;;;1.20;99.90;;;;;;487901;243;27533;-70
2021/01/12 06:32:00;;;;;;;12.02;8.07;;;1.20;99.90;;;;;;485077;245;27932;-70
2021/01/12 06:34:02;;;;;;;12.07;8.95;;;1.20;99.90;;;;;;484340;245;27889;-71
2021/01/12 06:36:03;;;;;;;12.93;8.13;;;1.10;99.90;;;;;;495028;240;27590;-71
2021/01/12 06:38:04;;;;;;;12.98;8.82;;;1.20;99.90;;;;;;487912;243;27658;-70
2021/01/12 06:40:07;;;;;;;12.10;8.35;;;1.20;99.90;;;;;;484839;245;27547;-70
2021/01/12 06:42:07;;;;;;;11.00;7.70;;;1.20;99.90;;;;;;494224;240;27959;-70
2021/01/12 06:44:08;;;;;;;10.18;7.60;;;1.20;99.90;;;;;;487183;244;27987;-70
2021/01/12 06:46:10;;;;;;;11.23;7.78;;;1.20;99.90;;;;;;484789;245;27999;-70
2021/01/12 06:48:10;;;;;;;12.48;7.90;;;1.20;99.90;;;;;;495173;240;27593;-70
2021/01/12 06:50:12;;;;;;;10.48;8.25;;;1.20;99.90;;;;;;487998;244;27499;-70
2021/01/12 06:52:13;;;;;;;10.70;7.55;;;1.20;99.90;;;;;;484972;245;27487;-70
2021/01/12 06:54:14;;;;;;;10.30;7.18;;;1.10;99.90;;;;;;484175;245;27600;-70
2021/01/12 06:56:16;;;;;;;10.38;7.15;;;1.10;99.90;;;;;;494918;240;27518;-70
2021/01/12 06:58:17;;;;;;;10.43;7.30;;;1.20;99.90;;;;;;494877;240;27587;-70
2021/01/12 07:00:18;;;;;;;11.57;8.07;;;1.20;99.90;;;;;;494865;240;27508;-71
2021/01/12 07:02:19;;;;;;;9.68;7.20;;;1.20;99.90;;;;;;494929;240;27976;-70
2021/01/12 07:04:20;;;;;;;9.68;6.70;;;1.20;99.90;;;;;;487772;243;27995;-70
2021/01/12 07:06:22;;;;;;;10.02;7.22;;;1.20;99.90;;;;;;484963;245;28111;-70
2021/01/12 07:08:23;;;;;;;8.82;7.68;;;1.10;99.90;;;;;;484183;245;27557;-70
2021/01/12 07:10:24;;;;;;;10.85;8.07;;;1.00;99.90;;;;;;494914;240;27538;-71
2021/01/12 07:12:25;;;;;;;9.85;7.35;;;1.00;99.90;;;;;;494998;240;27465;-69
2021/01/12 07:14:27;;;;;;;9.70;7.72;;;1.10;99.90;;;;;;495007;240;27491;-70
2021/01/12 07:16:28;;;;;;;9.82;7.28;;;1.20;99.90;;;;;;487905;243;27529;-71
2021/01/12 07:18:29;;;;;;;10.70;6.97;;;1.10;99.90;;;;;;484454;245;27888;-70
2021/01/12 07:20:30;;;;;;;9.13;6.90;;;1.20;99.90;;;;;;484026;245;27629;-71
2021/01/12 07:22:32;;;;;;;9.05;6.80;;;1.10;99.90;;;;;;494899;240;27555;-69
2021/01/12 07:24:33;;;;;;;9.30;6.43;;;1.10;99.90;;;;;;494902;240;27492;-70
2021/01/12 07:26:34;;;;;;;8.85;6.72;;;1.10;99.90;;;;;;495034;240;27594;-71
2021/01/12 07:28:35;;;;;;;8.13;6.47;;;1.10;99.90;;;;;;495082;240;27914;-69
2021/01/12 07:30:37;;;;;;;9.65;6.87;;;1.20;99.90;;;;;;495061;240;28037;-70
2021/01/12 07:32:38;;;;;;;9.50;6.30;;;1.20;99.90;;;;;;495134;240;27917;-69
2021/01/12 07:34:39;;;;;;;8.63;6.40;;;1.20;99.90;;;;;;487991;243;28097;-69
2021/01/12 07:36:40;;;;;;;6.82;6.05;;;1.20;99.90;;;;;;485142;245;27536;-71
2021/01/12 07:38:42;;;;;;;6.87;5.40;;;1.20;99.90;;;;;;484396;245;27515;-70
2021/01/12 07:40:43;;;;;;;7.75;5.45;;;1.10;99.90;;;;;;494994;240;27594;-70
2021/01/12 07:42:44;;;;;;;7.65;6.03;;;1.00;99.90;;;;;;494981;240;27465;-69
2021/01/12 07:44:45;;;;;;;9.80;6.68;;;1.00;99.90;;;;;;494947;240;27512;-70
2021/01/12 07:46:47;;;;;;;9.05;6.45;;;1.10;99.90;;;;;;487774;243;27558;-70
2021/01/12 07:48:48;;;;;;;8.00;5.90;;;1.20;99.90;;;;;;485039;245;27520;-69
2021/01/12 07:50:49;;;;;;;8.50;6.25;;;1.20;99.90;;;;;;484213;245;27548;-70
2021/01/12 07:52:50;;;;;;;6.25;5.65;;;1.20;99.90;;;;;;494985;240;27551;-69
2021/01/12 07:54:52;;;;;;;6.70;5.97;;;1.10;99.90;;;;;;494965;240;27573;-69
2021/01/12 07:56:53;;;;;;;6.57;5.50;;;1.10;99.90;;;;;;495009;240;28059;-70
2021/01/12 07:58:54;;;;;;;6.03;5.25;;;1.10;99.90;;;;;;487906;243;27932;-69
2021/01/12 08:00:55;;;;;;;6.60;5.10;;;1.10;99.90;;;;;;485072;245;28070;-70
2021/01/12 08:02:57;;;;;;;6.00;5.28;;;1.10;99.90;;;;;;484328;245;28171;-69
2021/01/12 08:04:58;;;;;;;6.22;5.35;;;1.20;99.90;;;;;;495044;240;27468;-69
2021/01/12 08:06:59;;;;;;;6.15;5.15;;;1.20;99.90;;;;;;495023;240;27527;-68
2021/01/12 08:09:00;;;;;;;5.70;5.00;;;1.10;99.90;;;;;;494936;240;27611;-70
2021/01/12 08:11:02;;;;;;;5.93;5.12;;;1.10;99.90;;;;;;494930;240;27584;-69
2021/01/12 08:13:03;;;;;;;5.82;4.93;;;1.10;99.90;;;;;;494153;240;27821;-70
2021/01/12 08:15:04;;;;;;;5.85;5.18;;;1.10;99.90;;;;;;494735;240;27507;-70
2021/01/12 08:17:05;;;;;;;6.03;5.20;;;1.20;99.90;;;;;;494691;240;27602;-69
2021/01/12 08:19:07;;;;;;;6.75;5.00;;;1.00;99.90;;;;;;494598;240;27630;-69
2021/01/12 08:21:08;;;;;;;7.22;5.40;;;1.10;99.90;;;;;;494706;240;27497;-69
2021/01/12 08:23:09;;;;;;;6.85;5.00;;;1.20;99.90;;;;;;494776;240;27622;-70
2021/01/12 08:25:10;;;;;;;5.90;4.85;;;1.10;99.90;;;;;;494845;240;28991;-68
2021/01/12 08:27:12;;;;;;;6.55;4.70;;;1.20;99.90;;;;;;494812;240;28070;-69
2021/01/12 08:29:13;;;;;;;7.32;5.00;;;1.20;99.90;;;;;;494869;240;28833;-70
2021/01/12 08:31:14;;;;;;;7.53;5.18;;;1.20;99.90;;;;;;494931;240;27915;-68
2021/01/12 08:33:15;;;;;;;5.05;4.40;;;1.20;99.90;;;;;;495000;240;27515;-69
2021/01/12 08:35:17;;;;;;;7.10;4.95;;;1.10;99.90;;;;;;487865;243;27691;-68
2021/01/12 08:37:18;;;;;;;9.40;4.85;;;1.10;99.90;;;;;;484934;245;27536;-69
2021/01/12 08:39:19;;;;;;;5.32;4.65;;;1.10;99.90;;;;;;484275;245;27523;-70
2021/01/12 08:41:20;;;;;;;5.28;4.43;;;1.20;99.90;;;;;;494967;240;27568;-69
2021/01/12 08:43:22;;;;;;;5.87;5.22;;;1.10;99.90;;;;;;494994;240;27504;-69
2021/01/12 08:45:23;;;;;;;7.60;5.28;;;1.10;99.90;;;;;;495056;240;27477;-69
2021/01/12 08:47:24;;;;;;;7.10;4.57;;;1.10;99.90;;;;;;495035;240;27531;-69
2021/01/12 08:49:25;;;;;;;6.20;4.85;;;1.10;99.90;;;;;;495075;240;27639;-71
2021/01/12 08:51:28;;;;;;;4.90;3.80;;;1.20;99.90;;;;;;495060;240;27473;-69
2021/01/12 08:53:28;;;;;;;5.90;4.55;;;1.20;99.90;;;;;;487871;243;27959;-69
2021/01/12 08:55:29;;;;;;;5.12;4.60;;;1.20;99.90;;;;;;485143;245;28864;-69
2021/01/12 08:57:30;;;;;;;4.65;4.18;;;1.20;99.90;;;;;;484397;245;27952;-69
2021/01/12 08:59:32;;;;;;;6.22;5.15;;;1.20;99.90;;;;;;495100;240;28111;-70
2021/01/12 09:01:33;;;;;;;5.70;4.80;;;1.20;99.90;;;;;;495054;240;27465;-69
2021/01/12 09:03:35;;;;;;;9.32;5.22;;;1.20;99.90;;;;;;495092;240;27492;-70
2021/01/12 09:05:35;;;;;;;4.60;4.20;;;1.20;99.90;;;;;;495055;240;27506;-70
2021/01/12 09:07:37;;;;;;;5.25;4.55;;;1.20;99.90;;;;;;487969;243;27586;-69
2021/01/12 09:09:38;;;;;;;4.18;3.75;;;1.20;99.90;;;;;;485094;245;27539;-70
2021/01/12 09:11:39;;;;;;;7.68;4.70;;;1.10;99.90;;;;;;484288;245;27559;-69
2021/01/12 09:13:40;;;;;;;5.07;4.22;;;1.20;99.90;;;;;;494978;240;27591;-69
2021/01/12 09:15:43;;;;;;;4.70;3.83;;;1.20;99.90;;;;;;494900;240;27925;-72
2021/01/12 09:17:43;;;;;;;5.57;4.25;;;1.30;99.90;;;;;;494606;240;27508;-69
2021/01/12 09:19:44;;;;;;;4.40;4.00;;;1.30;99.90;;;;;;494884;240;27532;-71
2021/01/12 09:21:45;;;;;;;5.43;4.45;;;1.20;99.90;;;;;;494882;240;27915;-69
2021/01/12 09:23:47;;;;;;;5.95;4.50;;;1.30;99.90;;;;;;494945;240;28138;-69
2021/01/12 09:25:49;;;;;;;4.68;4.22;;;1.30;99.90;;;;;;487865;243;28104;-70
2021/01/12 09:27:49;;;;;;;10.77;4.43;;;1.30;99.90;;;;;;485073;245;27972;-69
2021/01/12 09:29:50;;;;;;;6.37;4.00;;;1.30;99.90;;;;;;484339;245;27648;-70
2021/01/12 09:31:52;;;;;;;4.55;3.97;;;1.30;99.90;;;;;;495003;240;27508;-69
2021/01/12 09:33:53;;;;;;;5.22;4.45;;;1.20;99.90;;;;;;495021;240;27476;-70
2021/01/12 09:35:54;;;;;;;4.90;3.90;;;1.30;99.90;;;;;;495003;240;27501;-70
2021/01/12 09:37:55;;;;;;;7.12;4.22;;;1.30;99.90;;;;;;495000;240;27496;-69
2021/01/12 09:39:57;;;;;;;4.82;4.32;;;1.40;99.90;;;;;;495007;240;27513;-70
2021/01/12 09:41:58;;;;;;;5.70;4.35;;;1.40;99.90;;;;;;495022;240;27492;-70
2021/01/12 09:43:59;;;;;;;4.22;3.83;;;1.40;99.90;;;;;;487841;243;27530;-70
2021/01/12 09:46:00;;;;;;;4.85;4.45;;;1.40;99.90;;;;;;484808;245;27544;-70
2021/01/12 09:48:02;;;;;;;4.78;4.30;;;1.40;99.90;;;;;;484169;245;27532;-69
2021/01/12 09:50:03;;;;;;;4.60;4.15;;;1.40;99.90;;;;;;494777;240;27955;-70
2021/01/12 09:52:04;;;;;;;6.32;4.43;;;1.40;99.90;;;;;;487755;243;27995;-72
2021/01/12 09:54:05;;;;;;;3.97;3.53;;;1.40;99.90;;;;;;484958;245;28062;-70
2021/01/12 09:56:07;;;;;;;8.90;4.43;;;1.40;99.90;;;;;;484189;245;27965;-70
2021/01/12 09:58:08;;;;;;;4.82;4.25;;;1.40;99.90;;;;;;494884;240;27507;-70
2021/01/12 10:00:09;;;;;;;4.50;3.75;;;1.40;99.90;;;;;;494841;240;27515;-69
2021/01/12 10:02:10;;;;;;;3.42;3.12;;;1.40;99.90;;;;;;494839;240;27515;-71
2021/01/12 10:04:13;;;;;;;4.15;3.75;;;1.50;99.90;;;;;;494794;240;27602;-70
2021/01/12 10:06:13;;;;;;;4.87;3.85;;;1.50;99.90;;;;;;494804;240;27531;-69
2021/01/12 10:08:14;;;;;;;4.40;3.42;;;1.50;99.90;;;;;;494931;240;27598;-71
2021/01/12 10:10:15;;;;;;;4.00;3.60;;;1.50;99.90;;;;;;494959;240;27584;-69
2021/01/12 10:12:17;;;;;;;4.45;3.70;;;1.40;99.90;;;;;;487891;243;27530;-72
2021/01/12 10:14:18;;;;;;;3.95;3.60;;;1.40;99.90;;;;;;484805;245;27488;-70
2021/01/12 10:16:19;;;;;;;3.87;3.47;;;1.50;99.90;;;;;;484295;245;27532;-69
2021/01/12 10:18:20;;;;;;;4.45;3.15;;;1.50;99.90;;;;;;494974;240;27982;-72
2021/01/12 10:20:22;;;;;;;3.97;3.60;;;1.60;99.90;;;;;;494895;240;28057;-70
2021/01/12 10:22:23;;;;;;;3.50;3.20;;;1.60;99.90;;;;;;487777;243;28110;-70
2021/01/12 10:24:24;;;;;;;3.62;3.33;;;1.50;99.90;;;;;;485003;245;28686;-70
2021/01/12 10:26:26;;;;;;;3.20;2.90;;;1.50;99.90;;;;;;484194;245;27527;-70
2021/01/12 10:28:27;;;;;;;4.15;3.80;;;1.60;99.90;;;;;;494925;240;27501;-71
2021/01/12 10:30:28;;;;;;;7.43;4.37;;;1.60;99.90;;;;;;494879;240;27574;-69